Detalii statie BONGA [00001D00]

Toti senzorii

Date Temperatura solului [C]Precipitatii [mm]Voltaj baterie [mV]Leaf Wetness [Min]HC Air temperature [C]HC Relative humidity [%]Punctul de roua [C]
medieminmaxsumaultimatimpmedieminmaxmediemediemin
2019-10-19 23:00:00 11.1 10.8 11.3 0 6854 9.49 9.18 9.71 0 0 0
2019-10-20 00:00:00 10.8 10.7 11 0 6854 9.39 9.06 9.56 0 0 0
2019-10-20 01:00:00 10.6 10.6 10.8 0 6854 8.97 8.61 9.46 0 0 0
2019-10-20 02:00:00 10.3 10 10.7 0 6854 8.21 7.97 8.56 0 0 0
2019-10-20 03:00:00 10 9.9 10.2 0 6854 7.8 7.35 8.09 0 0 0
2019-10-20 04:00:00 10 9.9 10.1 0 6844 -1.06 8.53 0 0 0
2019-10-20 05:00:00 9.9 9.8 10.1 0 6854 8.7 8.03 9.51 0 0 0
2019-10-20 06:00:00 10.2 10.1 10.3 0 6864 9.43 9.39 9.53 0 0 0
2019-10-20 07:00:00 10.3 10.2 10.4 0 6816 9.29 9.21 9.46 0.8 0
2019-10-20 08:00:00 10.3 10.2 10.5 0 6826 9.49 9.25 9.86 17.98 -16.1 -30.7
2019-10-20 09:00:00 10.4 10.4 10.6 0 6854 10.46 9.96 10.84 57.62 2 -3.3
2019-10-20 10:00:00 10.7 10.5 10.9 0 6914 11.54 11.11 12.1 61.91 4.1 -0.3
2019-10-20 11:00:00 11.1 10.9 11.3 0 7010 12.71 12.25 13.26 9.5 0
2019-10-20 12:00:00 11.5 11.3 11.9 0 7108 14.07 13.22 14.99 0 0 0
2019-10-20 14:00:00 12.9 12.8 13 0 7000
2019-10-20 15:00:00 13.4 13.2 13.7 0 6962
2019-10-20 16:00:00 13.7 13.6 13.9 0 6942
2019-10-20 17:00:00 13.8 13.7 13.9 0 6904
2019-10-20 18:00:00 13.5 13.3 13.7 0 6844
2019-10-20 19:00:00 13 12.9 13.3 0 6874 14.4 13.97 15.16 0 0 0
2019-10-20 20:00:00 12.7 12.5 13.1 0 6874 13.04 11.79 14.02 0 0 0
2019-10-20 21:00:00 12.1 11.8 12.6 0 6864 11.18 10.3 11.76 0 0 0
2019-10-20 22:00:00 11.6 11.5 11.8 0 6864 10.07 9.34 10.85 0 0 0
2019-10-20 23:00:00 11.2 11.1 11.4 0 6864 9.04 8.65 9.65 0 0 0
2019-10-21 00:00:00 10.9 10.7 11.2 0 6844 8.54 8.05 9.16 0 0 0
2019-10-21 01:00:00 10.7 10.7 11 0 6844 8.34 7.78 8.72 0 0 0
2019-10-21 02:00:00 10.7 10.6 11 0 6844 9.12 8.53 9.52 0 0 0
2019-10-21 03:00:00 10.8 10.7 10.9 0 6854 9.15 8.52 9.88 0 0 0
2019-10-21 04:00:00 10.4 10.3 10.7 0 6844 9 8.28 9.44 0 0 0
2019-10-21 05:00:00 10.2 10.1 10.3 0 6834 8.26 7.86 8.72 0.11 0
2019-10-21 06:00:00 10.3 10.2 10.4 0 6816 8.42 8.21 8.74 7.37 -26.7 -38.1
2019-10-21 07:00:00 10.1 10 10.4 0 6816 8.34 7.94 8.78 23.17 -13 -21.7
2019-10-21 08:00:00 10.3 10.3 10.5 0 6826 9.33 8.76 10.02 70.73 3.7 -2.5
2019-10-21 09:00:00 10.6 10.4 10.8 0 6874 10.56 10.16 11.32 100 10.5 10.1
2019-10-21 10:00:00 10.8 10.6 11.1 0 6922 12.23 11.4 13.15 100 12.2 11.4
2019-10-21 11:00:00 11.3 11.1 11.5 0 7000 13.84 13.28 14.53 84.18 0
2019-10-21 12:00:00 11.8 11.6 12.2 0 7098 15.04 14.47 15.79 0 0 0
2019-10-21 13:00:00 12.4 12.2 12.8 0 7080 7.93 19.82 0 0 0
2019-10-21 14:00:00 13.5 13.3 13.7 0 6962
2019-10-21 15:00:00 13.9 13.6 14.3 0 6952
2019-10-21 16:00:00 14.3 14.2 14.5 0 6952
2019-10-21 17:00:00 14.3 14.3 14.5 0 6904
2019-10-21 18:00:00 14 13.8 14.2 0 6844
2019-10-21 19:00:00 13.1 12.6 13.7 0 6816
2019-10-21 20:00:00 12.4 12.2 12.8 0 6806
2019-10-21 21:00:00 11.9 11.8 12.1 0 6796
2019-10-21 22:00:00 11.5 11.3 11.9 0 6786
2019-10-21 23:00:00 11.1 10.9 11.4 0 6786